createdAt,value
2023-01-08T00:00:20.781Z,5.74
2023-01-08T00:05:44.217Z,5.78
2023-01-08T00:10:46.058Z,5.73
2023-01-08T00:15:48.088Z,5.72
2023-01-08T00:20:51.403Z,5.68
2023-01-08T00:25:53.494Z,5.66
2023-01-08T00:30:56.032Z,5.54
2023-01-08T00:35:59.977Z,5.72
2023-01-08T00:41:02.014Z,5.67
2023-01-08T00:46:04.545Z,5.76
2023-01-08T00:51:09.029Z,5.73
2023-01-08T00:56:11.493Z,5.64
2023-01-08T01:01:15.912Z,5.70
2023-01-08T01:06:19.635Z,5.64
2023-01-08T01:11:25.134Z,5.60
2023-01-08T01:16:27.530Z,5.71
2023-01-08T01:21:32.192Z,5.60
2023-01-08T01:26:34.684Z,5.60
2023-01-08T01:31:37.030Z,5.66
2023-01-08T01:36:40.349Z,5.75
2023-01-08T01:41:45.975Z,5.66
2023-01-08T01:46:49.639Z,5.61
2023-01-08T01:51:56.441Z,5.64
2023-01-08T01:57:00.177Z,5.80
2023-01-08T02:02:02.720Z,5.91
2023-01-08T02:07:13.029Z,5.90
2023-01-08T02:12:19.119Z,5.79
2023-01-08T02:17:27.873Z,5.82
2023-01-08T02:22:44.569Z,5.77
2023-01-08T02:27:51.175Z,5.77
2023-01-08T02:32:53.167Z,5.84
2023-01-08T02:37:55.363Z,5.76
2023-01-08T02:43:06.377Z,5.82
2023-01-08T02:48:12.876Z,5.73
2023-01-08T02:53:19.079Z,5.83
2023-01-08T02:58:25.104Z,5.83
2023-01-08T03:03:29.509Z,5.82
2023-01-08T03:08:34.823Z,5.82
2023-01-08T03:13:42.498Z,5.74
2023-01-08T03:18:49.364Z,5.68
2023-01-08T03:23:51.611Z,5.76
2023-01-08T03:28:57.450Z,5.84
2023-01-08T03:34:02.549Z,5.88
2023-01-08T03:39:10.651Z,5.86
2023-01-08T03:44:14.239Z,5.77
2023-01-08T03:49:17.704Z,5.38
2023-01-08T03:54:20.984Z,4.55
2023-01-08T03:59:24.282Z,4.06
2023-01-08T04:04:26.497Z,3.65
2023-01-08T04:09:30.812Z,3.51
2023-01-08T04:14:34.144Z,4.61
2023-01-08T04:19:36.476Z,4.82
2023-01-08T04:24:38.456Z,5.00
2023-01-08T04:29:42.085Z,5.23
2023-01-08T04:34:45.059Z,5.39
2023-01-08T04:39:47.209Z,5.33
2023-01-08T04:44:50.766Z,5.34
2023-01-08T04:49:52.831Z,4.80
2023-01-08T04:54:54.858Z,3.85
2023-01-08T04:59:58.343Z,3.62
2023-01-08T05:05:00.367Z,3.48
2023-01-08T05:10:02.356Z,3.51
2023-01-08T05:15:06.928Z,3.19
2023-01-08T05:20:09.650Z,2.92
2023-01-08T05:25:11.611Z,2.72
2023-01-08T05:30:15.344Z,2.76
2023-01-08T05:35:18.273Z,2.42
2023-01-08T05:40:20.116Z,2.30
2023-01-08T05:45:23.447Z,2.37
2023-01-08T05:50:25.956Z,2.04
2023-01-08T05:55:27.937Z,1.84
2023-01-08T06:00:32.402Z,1.70
2023-01-08T06:05:34.444Z,1.59
2023-01-08T06:10:37.536Z,1.69
2023-01-08T06:15:41.273Z,1.39
2023-01-08T06:20:43.199Z,1.28
2023-01-08T06:25:45.209Z,1.21
2023-01-08T06:30:48.800Z,1.06
2023-01-08T06:35:50.892Z,0.71
2023-01-08T06:40:52.869Z,0.43
2023-01-08T06:45:58.520Z,0.43
2023-01-08T06:51:00.678Z,0.45
2023-01-08T06:56:03.584Z,0.30
2023-01-08T07:01:07.062Z,0.43
2023-01-08T07:06:14.486Z,0.55
2023-01-08T07:11:16.690Z,0.45
2023-01-08T07:16:20.085Z,0.86
2023-01-08T07:21:22.684Z,0.84
2023-01-08T07:26:25.020Z,1.06
2023-01-08T07:31:28.754Z,1.06
2023-01-08T07:36:31.072Z,1.23
2023-01-08T07:41:33.093Z,1.56
2023-01-08T07:46:36.820Z,1.64
2023-01-08T07:51:38.838Z,1.76
2023-01-08T07:56:40.815Z,2.30
2023-01-08T08:01:44.251Z,2.71
2023-01-08T08:06:46.360Z,3.16
2023-01-08T08:11:48.384Z,3.62
2023-01-08T08:16:51.775Z,3.82
2023-01-08T08:21:53.763Z,4.00
2023-01-08T08:26:55.853Z,4.51
2023-01-08T08:31:59.428Z,4.59
2023-01-08T08:37:01.450Z,4.73
2023-01-08T08:42:03.542Z,4.95
2023-01-08T08:47:09.168Z,5.33
2023-01-08T08:52:11.236Z,5.39
2023-01-08T08:57:13.367Z,5.44
2023-01-08T09:02:16.946Z,5.48
2023-01-08T09:07:20.106Z,5.31
2023-01-08T09:12:22.087Z,5.21
2023-01-08T09:17:25.978Z,5.36
2023-01-08T09:22:28.043Z,5.23
2023-01-08T09:27:29.998Z,5.04
2023-01-08T09:32:33.653Z,5.03
2023-01-08T09:37:35.673Z,5.10
2023-01-08T09:42:38.398Z,5.02
2023-01-08T09:47:44.240Z,5.03
2023-01-08T09:52:46.760Z,5.33
2023-01-08T09:57:49.215Z,5.55
2023-01-08T10:02:54.829Z,5.80
2023-01-08T10:07:56.964Z,6.08
2023-01-08T10:12:59.593Z,6.57
2023-01-08T10:18:06.340Z,7.02
2023-01-08T10:23:10.192Z,7.13
2023-01-08T10:28:19.030Z,7.09
2023-01-08T10:33:25.927Z,7.10
2023-01-08T10:38:33.364Z,7.37
2023-01-08T10:43:40.843Z,7.26
2023-01-08T10:48:50.745Z,7.31
2023-01-08T10:53:54.818Z,7.74
2023-01-08T10:58:57.426Z,8.28
2023-01-08T11:04:02.519Z,8.02
2023-01-08T11:09:19.490Z,8.10
2023-01-08T11:14:25.652Z,8.08
2023-01-08T11:19:31.016Z,8.20
2023-01-08T11:24:35.108Z,8.04
2023-01-08T11:29:44.461Z,8.31
2023-01-08T11:34:54.974Z,8.48
2023-01-08T11:39:57.416Z,8.32
2023-01-08T11:45:10.808Z,8.42
2023-01-08T11:50:21.756Z,8.19
2023-01-08T11:55:32.352Z,8.06
2023-01-08T12:00:48.959Z,7.99
2023-01-08T12:05:59.751Z,8.02
2023-01-08T12:11:10.321Z,7.95
2023-01-08T12:16:22.604Z,7.85
2023-01-08T12:21:31.915Z,8.03
2023-01-08T12:26:44.502Z,7.75
2023-01-08T12:32:06.919Z,7.38
2023-01-08T12:37:15.197Z,7.16
2023-01-08T12:42:24.465Z,7.06
2023-01-08T12:47:31.081Z,6.88
2023-01-08T12:52:42.122Z,6.80
2023-01-08T12:57:52.920Z,6.71
2023-01-08T13:02:58.846Z,6.45
2023-01-08T13:08:05.839Z,6.26
2023-01-08T13:13:23.224Z,6.26
2023-01-08T13:18:26.300Z,6.18
2023-01-08T13:23:31.762Z,5.99
2023-01-08T13:28:44.342Z,5.87
2023-01-08T13:33:47.811Z,5.68
2023-01-08T13:39:20.032Z,5.60
2023-01-08T13:44:27.086Z,5.19
2023-01-08T13:49:34.631Z,4.91
2023-01-08T13:54:40.227Z,4.47
2023-01-08T13:59:48.154Z,4.32
2023-01-08T14:04:51.424Z,4.09
2023-01-08T14:10:07.615Z,3.96
2023-01-08T14:15:20.056Z,3.70
2023-01-08T14:20:32.539Z,3.35
2023-01-08T14:25:35.877Z,3.43
2023-01-08T14:30:37.869Z,3.42
2023-01-08T14:35:40.708Z,3.30
2023-01-08T14:40:51.032Z,3.13
2023-01-08T14:45:54.702Z,2.85
2023-01-08T14:51:03.101Z,2.86
2023-01-08T14:56:07.535Z,2.65
2023-01-08T15:01:15.758Z,2.57
2023-01-08T15:06:24.827Z,2.72
2023-01-08T15:11:31.207Z,2.71
2023-01-08T15:16:38.909Z,2.42
2023-01-08T15:21:46.772Z,2.25
2023-01-08T15:26:50.348Z,2.49
2023-01-08T15:31:52.556Z,2.30
2023-01-08T15:36:54.608Z,2.47
2023-01-08T15:42:39.489Z,2.36
2023-01-08T15:47:41.459Z,2.51
2023-01-08T15:52:45.008Z,2.43
2023-01-08T15:57:48.802Z,2.42
2023-01-08T16:02:51.945Z,2.65
2023-01-08T16:07:54.203Z,2.70
2023-01-08T16:12:57.487Z,2.92
2023-01-08T16:17:59.605Z,2.86
2023-01-08T16:23:01.703Z,3.39
2023-01-08T16:28:05.412Z,3.47
2023-01-08T16:33:07.469Z,4.86
2023-01-08T16:38:12.556Z,5.46
2023-01-08T16:43:15.933Z,5.52
2023-01-08T16:48:18.628Z,6.20
2023-01-08T16:53:21.923Z,6.46
2023-01-08T16:58:25.301Z,6.36
2023-01-08T17:03:27.675Z,6.60
2023-01-08T17:08:29.614Z,6.82
2023-01-08T17:13:33.025Z,6.98
2023-01-08T17:18:34.925Z,7.00
2023-01-08T17:23:37.538Z,7.01
2023-01-08T17:28:41.460Z,7.06
2023-01-08T17:33:45.209Z,7.13
2023-01-08T17:38:49.263Z,7.03
2023-01-08T17:43:52.609Z,7.03
2023-01-08T17:48:54.714Z,7.26
2023-01-08T17:53:57.290Z,7.21
2023-01-08T17:59:00.686Z,7.22
2023-01-08T18:04:03.181Z,7.42
2023-01-08T18:09:05.148Z,7.45
2023-01-08T18:14:11.409Z,7.44
2023-01-08T18:19:15.681Z,7.17
2023-01-08T18:24:17.944Z,7.23
2023-01-08T18:29:21.564Z,7.17
2023-01-08T18:34:23.675Z,7.05
2023-01-08T18:39:28.264Z,7.11
2023-01-08T18:44:31.838Z,7.19
2023-01-08T18:49:33.949Z,7.12
2023-01-08T18:54:36.031Z,7.15
2023-01-08T18:59:39.502Z,7.06
2023-01-08T19:04:41.495Z,6.66
2023-01-08T19:09:43.794Z,6.67
2023-01-08T19:14:47.839Z,6.81
2023-01-08T19:19:49.797Z,6.50
2023-01-08T19:24:51.988Z,6.45
2023-01-08T19:29:55.448Z,6.52
2023-01-08T19:34:57.580Z,6.48
2023-01-08T19:40:01.954Z,7.00
2023-01-08T19:45:06.545Z,6.68
2023-01-08T19:50:09.999Z,6.93
2023-01-08T19:55:12.225Z,7.02
2023-01-08T20:00:16.675Z,6.89
2023-01-08T20:05:18.853Z,7.10
2023-01-08T20:10:22.453Z,7.34
2023-01-08T20:15:26.182Z,7.12
2023-01-08T20:20:28.487Z,7.32
2023-01-08T20:25:30.509Z,7.28
2023-01-08T20:30:33.916Z,7.28
2023-01-08T20:35:36.667Z,7.20
2023-01-08T20:40:39.551Z,7.26
2023-01-08T20:45:43.022Z,7.20
2023-01-08T20:50:47.362Z,7.32
2023-01-08T20:55:49.455Z,7.48
2023-01-08T21:00:53.220Z,7.59
2023-01-08T21:05:55.182Z,7.62
2023-01-08T21:10:58.218Z,7.54
2023-01-08T21:16:03.632Z,7.39
2023-01-08T21:21:06.683Z,7.64
2023-01-08T21:26:10.640Z,7.50
2023-01-08T21:31:17.139Z,7.44
2023-01-08T21:36:21.498Z,7.48
2023-01-08T21:41:44.227Z,7.55
2023-01-08T21:46:48.057Z,7.62
2023-01-08T21:52:08.559Z,7.66
2023-01-08T21:57:10.673Z,7.61
2023-01-08T22:02:16.664Z,7.51
2023-01-08T22:07:18.704Z,7.64
2023-01-08T22:12:22.608Z,7.57
2023-01-08T22:17:29.215Z,7.65
2023-01-08T22:22:31.216Z,7.52
2023-01-08T22:27:33.267Z,7.09
2023-01-08T22:32:36.699Z,6.60
2023-01-08T22:37:40.527Z,6.34
2023-01-08T22:42:42.535Z,6.20
2023-01-08T22:47:46.093Z,6.07
2023-01-08T22:52:48.219Z,5.99
2023-01-08T22:57:52.087Z,5.70
2023-01-08T23:02:55.808Z,5.41
2023-01-08T23:07:57.842Z,5.05
2023-01-08T23:13:00.140Z,5.02
2023-01-08T23:18:03.665Z,5.03
2023-01-08T23:23:05.907Z,4.59
2023-01-08T23:28:07.979Z,4.78
2023-01-08T23:33:11.651Z,4.24
2023-01-08T23:38:13.629Z,4.10
2023-01-08T23:43:15.761Z,3.55
2023-01-08T23:48:19.300Z,3.57
2023-01-08T23:53:21.211Z,3.47
2023-01-08T23:58:23.423Z,3.49
